Time;durP1;ratioP1;P1;durP2;ratioP2;P2;SDS_P1;SDS_P2;PMS_P1;PMS_P2;Temp;Humidity;BMP_temperature;BMP_pressure;BME280_temperature;BME280_humidity;BME280_pressure;Samples;Min_cycle;Max_cycle;Signal;HPM_P1;HPM_P2
2022/11/29 00:00:32;;;;;;;8.43;5.23;;;10.30;99.90;;;;;;5043878;28;20483;-62
2022/11/29 00:02:59;;;;;;;18.27;9.20;;;10.30;99.90;;;;;;5047870;28;20983;-62
2022/11/29 00:05:25;;;;;;;13.00;5.17;;;10.30;99.90;;;;;;5047534;28;20488;-61
2022/11/29 00:07:52;;;;;;;11.50;6.80;;;10.30;99.90;;;;;;5044895;28;20843;-61
2022/11/29 00:10:19;;;;;;;16.33;6.87;;;10.30;99.90;;;;;;5047544;28;20499;-61
2022/11/29 00:12:48;;;;;;;13.47;5.70;;;10.40;99.90;;;;;;5047954;28;20863;-61
2022/11/29 00:15:14;;;;;;;20.37;9.90;;;10.40;99.90;;;;;;5045837;28;20492;-61
2022/11/29 00:17:41;;;;;;;10.77;6.43;;;10.40;99.90;;;;;;5045649;28;20475;-61
2022/11/29 00:20:10;;;;;;;20.73;8.23;;;10.40;99.90;;;;;;5047073;28;20483;-62
2022/11/29 00:22:40;;;;;;;8.70;5.03;;;10.40;99.90;;;;;;5039396;28;20530;-62
2022/11/29 00:25:08;;;;;;;20.80;10.53;;;11.40;99.90;;;;;;5057213;28;20490;-62
2022/11/29 00:27:34;;;;;;;7.67;4.80;;;10.30;99.90;;;;;;5034933;28;20498;-61
2022/11/29 00:30:02;;;;;;;14.27;8.07;;;10.30;99.90;;;;;;5037314;28;20487;-62
2022/11/29 00:32:29;;;;;;;9.17;5.27;;;10.20;99.90;;;;;;5033661;28;21102;-62
2022/11/29 00:34:56;;;;;;;8.03;4.57;;;10.20;99.90;;;;;;5036067;28;20503;-62
2022/11/29 00:37:22;;;;;;;11.00;6.50;;;10.20;99.90;;;;;;5032026;28;20800;-61
2022/11/29 00:39:49;;;;;;;15.37;6.40;;;10.10;99.90;;;;;;5025839;28;20494;-62
2022/11/29 00:42:16;;;;;;;22.63;11.27;;;10.10;99.90;;;;;;5030202;28;20488;-62
2022/11/29 00:44:42;;;;;;;11.63;7.10;;;10.10;99.90;;;;;;5031761;28;20488;-62
2022/11/29 00:47:10;;;;;;;23.50;12.20;;;10.10;99.90;;;;;;5028140;28;20488;-61
2022/11/29 00:49:37;;;;;;;25.50;11.73;;;10.10;99.90;;;;;;5023471;28;20538;-62
2022/11/29 00:52:04;;;;;;;20.33;11.20;;;10.10;99.90;;;;;;5041407;28;20473;-62
2022/11/29 00:54:31;;;;;;;11.50;7.27;;;10.00;99.90;;;;;;5028203;28;20483;-61
2022/11/29 00:56:58;;;;;;;13.57;8.30;;;10.00;99.90;;;;;;5033514;28;20499;-62
2022/11/29 00:59:24;;;;;;;14.80;8.30;;;10.00;99.90;;;;;;5033772;28;20484;-62
2022/11/29 01:01:51;;;;;;;13.13;7.13;;;10.10;99.90;;;;;;5022124;28;20484;-62
2022/11/29 01:04:19;;;;;;;18.87;10.37;;;10.10;99.90;;;;;;5035776;28;20484;-61
2022/11/29 01:06:46;;;;;;;14.47;8.53;;;10.20;99.90;;;;;;5034578;28;20485;-61
2022/11/29 01:09:13;;;;;;;21.70;11.60;;;10.20;99.90;;;;;;5036168;28;20491;-61
2022/11/29 01:11:39;;;;;;;14.50;7.30;;;10.20;99.90;;;;;;5037253;28;20488;-60
2022/11/29 01:14:06;;;;;;;21.47;10.27;;;10.20;99.90;;;;;;5036493;28;20922;-61
2022/11/29 01:16:33;;;;;;;12.40;8.20;;;10.10;99.90;;;;;;5035085;28;20479;-61
2022/11/29 01:19:00;;;;;;;21.80;11.87;;;10.20;99.90;;;;;;5037508;28;21017;-61
2022/11/29 01:21:28;;;;;;;18.60;9.93;;;10.10;99.90;;;;;;5038143;28;20507;-61
2022/11/29 01:23:55;;;;;;;16.03;7.23;;;10.10;99.90;;;;;;5037710;28;20475;-61
2022/11/29 01:26:24;;;;;;;14.80;9.10;;;10.10;99.90;;;;;;5031693;28;20480;-61
2022/11/29 01:28:53;;;;;;;11.80;7.90;;;10.10;99.90;;;;;;5036237;28;20984;-61
2022/11/29 01:31:22;;;;;;;33.10;10.30;;;10.00;99.90;;;;;;5035537;28;20488;-60
2022/11/29 01:33:52;;;;;;;11.73;6.80;;;10.00;99.90;;;;;;5037088;28;20492;-61
2022/11/29 01:36:18;;;;;;;18.97;9.70;;;10.00;99.90;;;;;;5032845;28;20582;-61
2022/11/29 01:38:46;;;;;;;11.73;4.60;;;10.00;99.90;;;;;;5032732;28;20485;-60
2022/11/29 01:41:16;;;;;;;19.67;9.70;;;10.00;99.90;;;;;;5041909;28;21015;-60
2022/11/29 01:43:59;;;;;;;15.30;7.73;;;10.00;99.90;;;;;;5041825;28;20488;-61
2022/11/29 01:46:27;;;;;;;9.73;5.90;;;10.00;99.90;;;;;;5038185;28;20480;-60
2022/11/29 01:48:58;;;;;;;19.67;8.30;;;10.10;99.90;;;;;;5039637;28;20476;-61
2022/11/29 01:51:26;;;;;;;22.67;6.83;;;10.20;99.90;;;;;;5036946;28;21884;-61
2022/11/29 01:53:55;;;;;;;10.43;6.00;;;10.10;99.90;;;;;;5044245;28;20479;-60
2022/11/29 01:56:23;;;;;;;11.50;6.93;;;10.20;99.90;;;;;;5039752;28;20867;-61
2022/11/29 01:58:49;;;;;;;14.90;5.97;;;10.10;99.90;;;;;;5047336;28;20508;-60
2022/11/29 02:01:16;;;;;;;18.67;9.30;;;10.10;99.90;;;;;;5041549;28;20495;-61
2022/11/29 02:03:43;;;;;;;14.60;7.67;;;10.10;99.90;;;;;;5040180;28;20487;-61
2022/11/29 02:06:10;;;;;;;27.53;10.80;;;10.10;99.90;;;;;;5037735;28;20488;-61
2022/11/29 02:08:40;;;;;;;11.20;6.50;;;10.10;99.90;;;;;;5040087;28;20484;-61
2022/11/29 02:11:27;;;;;;;19.47;7.50;;;10.10;99.90;;;;;;5020781;28;20479;-61
2022/11/29 02:14:05;;;;;;;12.40;6.77;;;10.10;99.90;;;;;;5050903;28;21294;-61
2022/11/29 02:16:37;;;;;;;31.30;8.10;;;10.20;99.90;;;;;;5039410;28;20493;-61
2022/11/29 02:19:32;;;;;;;14.37;8.07;;;10.10;99.90;;;;;;5039023;28;20997;-61
2022/11/29 02:22:03;;;;;;;12.43;7.17;;;10.10;99.90;;;;;;5037947;28;20487;-61
2022/11/29 02:25:05;;;;;;;12.63;8.43;;;10.20;99.90;;;;;;5038472;28;20495;-61
2022/11/29 02:28:24;;;;;;;10.67;6.83;;;10.20;99.90;;;;;;5037409;28;20479;-61
2022/11/29 02:31:36;;;;;;;12.80;7.07;;;10.20;99.90;;;;;;5019537;28;20484;-61
2022/11/29 02:34:40;;;;;;;21.50;10.80;;;10.30;99.90;;;;;;5021381;28;20835;-61
2022/11/29 02:37:28;;;;;;;20.17;9.77;;;10.30;99.90;;;;;;5038655;28;20468;-61
2022/11/29 02:40:20;;;;;;;12.73;7.00;;;10.20;99.90;;;;;;5027876;28;20491;-61
2022/11/29 02:43:12;;;;;;;22.03;7.60;;;10.30;99.90;;;;;;5039480;28;20481;-61
2022/11/29 02:45:50;;;;;;;16.50;8.80;;;10.30;99.90;;;;;;5036480;28;21055;-61
2022/11/29 02:48:55;;;;;;;20.77;11.20;;;10.30;99.90;;;;;;5034739;28;20533;-61
2022/11/29 02:51:30;;;;;;;14.80;7.73;;;10.30;99.90;;;;;;5030018;28;21007;-60
2022/11/29 02:54:04;;;;;;;21.37;9.47;;;10.30;99.90;;;;;;5038364;28;20482;-61
2022/11/29 02:56:37;;;;;;;20.10;8.07;;;10.40;99.90;;;;;;5034916;28;20835;-61
2022/11/29 02:59:12;;;;;;;22.87;11.17;;;10.40;99.90;;;;;;5036111;28;21015;-61
2022/11/29 03:01:48;;;;;;;15.40;7.50;;;10.40;99.90;;;;;;5036287;28;21086;-61
2022/11/29 03:04:25;;;;;;;30.33;14.50;;;10.40;99.90;;;;;;5035774;28;20815;-61
2022/11/29 03:07:02;;;;;;;14.60;8.17;;;10.30;99.90;;;;;;5028651;28;20500;-61
2022/11/29 03:09:37;;;;;;;18.70;9.87;;;10.30;99.90;;;;;;5028453;28;20500;-61
2022/11/29 03:12:16;;;;;;;22.97;11.83;;;10.30;99.90;;;;;;5027378;28;20484;-61
2022/11/29 03:14:55;;;;;;;21.77;10.30;;;10.30;99.90;;;;;;5038423;28;20809;-61
2022/11/29 03:17:31;;;;;;;17.13;9.27;;;10.30;99.90;;;;;;5027306;28;20472;-61
2022/11/29 03:20:12;;;;;;;18.50;9.80;;;10.40;99.90;;;;;;5036457;28;20511;-60
2022/11/29 03:22:46;;;;;;;13.50;8.37;;;10.50;99.90;;;;;;5035100;28;20472;-61
2022/11/29 03:25:20;;;;;;;25.00;11.80;;;10.50;99.90;;;;;;5034814;28;20483;-61
2022/11/29 03:27:53;;;;;;;13.57;7.80;;;10.40;99.90;;;;;;5035307;28;20757;-60
2022/11/29 03:30:20;;;;;;;21.97;10.60;;;10.40;99.90;;;;;;5022977;28;20480;-61
2022/11/29 03:32:54;;;;;;;14.50;7.87;;;10.40;99.90;;;;;;5039487;28;20599;-61
2022/11/29 03:35:25;;;;;;;16.67;6.60;;;10.50;99.90;;;;;;5025922;28;20836;-61
2022/11/29 03:38:02;;;;;;;18.30;9.10;;;10.50;99.90;;;;;;5035447;28;20483;-62
2022/11/29 03:40:34;;;;;;;25.20;8.77;;;10.60;99.90;;;;;;5025984;28;20468;-62
2022/11/29 03:43:07;;;;;;;13.93;7.97;;;10.70;99.90;;;;;;5038457;28;20476;-62
2022/11/29 03:45:42;;;;;;;19.57;10.47;;;10.70;99.90;;;;;;5038559;28;20472;-61
2022/11/29 03:48:14;;;;;;;26.47;11.87;;;10.70;99.90;;;;;;5035135;28;20480;-62
2022/11/29 03:50:45;;;;;;;15.00;8.00;;;10.70;99.90;;;;;;5039896;28;20480;-62
2022/11/29 03:53:20;;;;;;;22.80;9.83;;;10.70;99.90;;;;;;5035345;28;20495;-62
2022/11/29 03:55:51;;;;;;;22.43;11.00;;;10.70;99.90;;;;;;5035574;28;20820;-62
2022/11/29 03:58:32;;;;;;;17.90;8.80;;;10.70;99.90;;;;;;5034820;28;20808;-61
2022/11/29 04:01:22;;;;;;;11.30;6.00;;;10.70;99.90;;;;;;5035924;28;20484;-62
2022/11/29 04:04:31;;;;;;;12.87;7.80;;;10.60;99.90;;;;;;5036173;28;20492;-62
2022/11/29 04:07:11;;;;;;;13.77;7.83;;;10.60;99.90;;;;;;5036356;28;20570;-61
2022/11/29 04:10:00;;;;;;;12.07;7.07;;;10.50;99.90;;;;;;5036241;28;20486;-61
2022/11/29 04:12:40;;;;;;;15.67;8.20;;;10.50;99.90;;;;;;5036457;28;20472;-62
2022/11/29 04:15:33;;;;;;;17.80;9.60;;;10.40;99.90;;;;;;5034769;28;20794;-61
2022/11/29 04:18:23;;;;;;;19.83;11.30;;;10.50;99.90;;;;;;5025324;28;20816;-61
2022/11/29 04:21:10;;;;;;;20.90;10.13;;;10.50;99.90;;;;;;5034868;28;20477;-61
2022/11/29 04:23:58;;;;;;;18.63;8.57;;;10.50;99.90;;;;;;5035293;28;20780;-62
2022/11/29 04:27:12;;;;;;;13.63;8.27;;;10.50;99.90;;;;;;5022177;28;20487;-61
2022/11/29 04:30:03;;;;;;;16.43;9.77;;;10.50;99.90;;;;;;5019696;28;20865;-61
2022/11/29 04:33:14;;;;;;;16.23;9.60;;;10.60;99.90;;;;;;5035054;28;20475;-61
2022/11/29 04:36:19;;;;;;;24.70;12.60;;;10.60;99.90;;;;;;5032644;28;20472;-62
2022/11/29 04:39:10;;;;;;;19.10;9.10;;;10.60;99.90;;;;;;5035029;28;20479;-62
2022/11/29 04:41:54;;;;;;;22.93;10.40;;;10.60;99.90;;;;;;5035816;28;20475;-61
2022/11/29 04:44:44;;;;;;;14.53;8.90;;;10.50;99.90;;;;;;5035919;28;20468;-61
2022/11/29 04:47:29;;;;;;;24.73;12.40;;;10.40;99.90;;;;;;5035536;28;20945;-61
2022/11/29 04:50:12;;;;;;;18.10;9.00;;;10.40;99.90;;;;;;5027498;28;20487;-61
2022/11/29 04:52:58;;;;;;;17.37;9.13;;;10.50;99.90;;;;;;5036697;28;20470;-61
2022/11/29 04:55:37;;;;;;;15.43;8.80;;;10.60;99.90;;;;;;5041447;28;20479;-61
2022/11/29 04:58:13;;;;;;;19.63;10.67;;;10.50;99.90;;;;;;5036349;28;20468;-61
2022/11/29 05:00:49;;;;;;;21.13;10.17;;;10.50;99.90;;;;;;5038786;28;20492;-61
2022/11/29 05:03:27;;;;;;;30.43;13.73;;;10.40;99.90;;;;;;5036522;28;20475;-60
2022/11/29 05:06:00;;;;;;;24.00;11.67;;;10.40;99.90;;;;;;5037245;28;20788;-61
2022/11/29 05:08:35;;;;;;;17.63;10.60;;;10.40;99.90;;;;;;5025912;28;20914;-61
2022/11/29 05:11:10;;;;;;;26.07;13.00;;;10.50;99.90;;;;;;5035563;28;20472;-61
2022/11/29 05:13:45;;;;;;;18.40;9.23;;;10.50;99.90;;;;;;5038327;28;20479;-61
2022/11/29 05:16:28;;;;;;;34.83;14.00;;;10.50;99.90;;;;;;5034575;28;20485;-61
2022/11/29 05:19:14;;;;;;;17.20;9.33;;;10.40;99.90;;;;;;5028265;28;20725;-60
2022/11/29 05:21:51;;;;;;;26.53;11.00;;;10.40;99.90;;;;;;5038709;28;20491;-61
2022/11/29 05:24:30;;;;;;;23.17;10.23;;;10.10;99.90;;;;;;5033589;28;21077;-61
2022/11/29 05:27:07;;;;;;;19.47;8.77;;;10.10;99.90;;;;;;5029868;28;20702;-61
2022/11/29 05:29:41;;;;;;;24.50;11.40;;;10.10;99.90;;;;;;5030821;28;20484;-61
2022/11/29 05:32:31;;;;;;;38.47;15.87;;;10.10;99.90;;;;;;5038995;28;20487;-61
2022/11/29 05:35:24;;;;;;;18.67;9.40;;;10.20;99.90;;;;;;5026957;28;20689;-60
2022/11/29 05:37:53;;;;;;;21.30;9.33;;;10.30;99.90;;;;;;5040065;28;20476;-61
2022/11/29 05:40:40;;;;;;;26.43;11.30;;;10.40;99.90;;;;;;5039272;28;20511;-61
2022/11/29 05:43:18;;;;;;;34.77;13.53;;;10.30;99.90;;;;;;5029516;28;20488;-61
2022/11/29 05:45:52;;;;;;;31.13;13.27;;;10.30;99.90;;;;;;5039357;28;20479;-60
2022/11/29 05:48:28;;;;;;;25.07;11.07;;;10.30;99.90;;;;;;5036185;28;22976;-61
2022/11/29 05:51:07;;;;;;;25.30;11.60;;;10.50;99.90;;;;;;5036869;28;21079;-61
2022/11/29 05:53:41;;;;;;;35.60;12.87;;;10.40;99.90;;;;;;5025982;28;20468;-61
2022/11/29 05:56:15;;;;;;;38.20;12.63;;;10.40;99.90;;;;;;5034824;28;20489;-61
2022/11/29 05:58:48;;;;;;;31.67;12.43;;;10.30;99.90;;;;;;5036949;28;20491;-61
2022/11/29 06:01:21;;;;;;;40.10;13.70;;;10.20;99.90;;;;;;5039207;28;21150;-61
2022/11/29 06:03:56;;;;;;;32.93;12.10;;;10.10;99.90;;;;;;5040038;28;20484;-61
2022/11/29 06:06:32;;;;;;;41.67;12.60;;;10.10;99.90;;;;;;5035249;28;20803;-61
2022/11/29 06:09:07;;;;;;;29.03;11.10;;;11.50;99.90;;;;;;5027596;28;20475;-61
2022/11/29 06:11:39;;;;;;;32.63;11.30;;;10.30;99.90;;;;;;5022760;28;20482;-61
2022/11/29 06:14:13;;;;;;;61.57;18.17;;;10.40;99.90;;;;;;5035802;28;21103;-61
2022/11/29 06:17:13;;;;;;;40.97;13.90;;;10.40;99.90;;;;;;5031347;28;20483;-61
2022/11/29 06:20:07;;;;;;;31.40;11.50;;;10.50;99.90;;;;;;5027176;28;21031;-61
2022/11/29 06:22:49;;;;;;;39.00;12.23;;;10.50;99.90;;;;;;5037787;28;21456;-60
2022/11/29 06:25:31;;;;;;;46.07;13.97;;;10.60;99.90;;;;;;5030833;28;20515;-60
2022/11/29 06:28:16;;;;;;;41.10;15.77;;;10.50;99.90;;;;;;5026546;28;20483;-61
2022/11/29 06:30:59;;;;;;;40.27;13.90;;;10.30;99.90;;;;;;5037324;28;20471;-60
2022/11/29 06:33:31;;;;;;;38.37;12.50;;;10.20;99.90;;;;;;5037707;28;21133;-62
2022/11/29 06:36:17;;;;;;;62.00;14.67;;;10.20;99.90;;;;;;5034765;28;20480;-61
2022/11/29 06:38:46;;;;;;;49.03;13.00;;;10.10;99.90;;;;;;4989051;28;1403038;-61
2022/11/29 06:41:18;;;;;;;56.77;13.20;;;10.20;99.90;;;;;;5039628;28;20472;-61
2022/11/29 06:43:46;;;;;;;55.57;12.97;;;10.20;99.90;;;;;;5037928;28;20765;-61
2022/11/29 06:46:21;;;;;;;93.57;16.50;;;10.20;99.90;;;;;;5040735;28;20515;-62
2022/11/29 06:48:53;;;;;;;73.20;14.60;;;10.20;99.90;;;;;;5039468;28;20476;-61
2022/11/29 06:51:28;;;;;;;64.20;13.87;;;10.20;99.90;;;;;;5036349;28;20487;-61
2022/11/29 06:54:04;;;;;;;57.80;13.17;;;10.10;99.90;;;;;;5037509;28;20475;-61
2022/11/29 06:56:40;;;;;;;51.93;13.53;;;10.00;99.90;;;;;;5035772;28;20487;-62
2022/11/29 06:59:13;;;;;;;108.17;19.17;;;9.90;99.90;;;;;;5036077;28;20488;-61
2022/11/29 07:01:47;;;;;;;31.63;12.47;;;10.00;99.90;;;;;;5036424;28;20860;-61
2022/11/29 07:04:29;;;;;;;82.80;16.60;;;10.10;99.90;;;;;;5035787;28;20804;-62
2022/11/29 07:06:57;;;;;;;47.47;11.83;;;;;;;;;;5033783;28;20980;-62
2022/11/29 07:09:30;;;;;;;41.40;11.03;;;10.30;99.90;;;;;;5035067;28;20483;-61
2022/11/29 07:11:57;;;;;;;59.37;12.63;;;;;;;;;;5032287;28;20480;-61
2022/11/29 07:14:24;;;;;;;44.63;11.17;;;;;;;;;;5038310;28;20991;-61
2022/11/29 07:16:56;;;;;;;67.47;13.27;;;;;;;;;;5037411;28;20480;-62
2022/11/29 07:19:30;;;;;;;40.87;12.70;;;10.60;99.90;;;;;;5032687;28;20489;-61
2022/11/29 07:22:05;;;;;;;64.03;17.47;;;10.50;99.90;;;;;;5035376;28;20495;-62
2022/11/29 07:24:47;;;;;;;29.60;12.50;;;10.50;99.90;;;;;;5024391;28;20537;-62
2022/11/29 07:27:20;;;;;;;63.53;18.87;;;10.50;99.90;;;;;;5032555;28;21035;-62
2022/11/29 07:30:04;;;;;;;30.60;11.70;;;10.50;99.90;;;;;;5035762;28;20575;-61
2022/11/29 07:32:42;;;;;;;32.50;14.10;;;10.50;99.90;;;;;;5022763;28;20488;-62
2022/11/29 07:35:16;;;;;;;45.73;16.17;;;10.40;99.90;;;;;;5024222;28;20482;-61
2022/11/29 07:37:53;;;;;;;28.83;11.77;;;10.40;99.90;;;;;;5031467;28;20503;-61
2022/11/29 07:40:28;;;;;;;38.53;16.07;;;10.40;99.90;;;;;;5033095;28;21031;-61
2022/11/29 07:43:06;;;;;;;29.43;12.00;;;10.40;99.90;;;;;;5036069;28;20863;-62
2022/11/29 07:45:35;;;;;;;23.63;11.60;;;10.40;99.90;;;;;;5024292;28;20472;-61
2022/11/29 07:48:02;;;;;;;31.13;11.47;;;10.50;99.90;;;;;;5025364;28;20468;-61
2022/11/29 07:50:30;;;;;;;22.93;9.43;;;10.50;99.90;;;;;;5039643;28;20837;-61
2022/11/29 07:52:58;;;;;;;22.83;11.60;;;10.50;99.90;;;;;;5038528;28;20480;-61
2022/11/29 07:55:28;;;;;;;22.23;12.03;;;10.50;99.90;;;;;;5029814;28;20495;-62
2022/11/29 07:57:55;;;;;;;26.43;10.97;;;10.50;99.90;;;;;;5047147;28;20483;-61
2022/11/29 08:00:22;;;;;;;43.73;15.73;;;10.50;99.90;;;;;;5037616;28;20502;-61
2022/11/29 08:02:50;;;;;;;35.90;15.83;;;10.50;99.90;;;;;;5037967;28;20844;-61
2022/11/29 08:05:17;;;;;;;24.33;10.60;;;10.50;99.90;;;;;;5025714;28;20488;-61
2022/11/29 08:07:45;;;;;;;28.50;10.83;;;10.50;99.90;;;;;;5043947;28;20481;-61
2022/11/29 08:10:13;;;;;;;33.80;14.37;;;;;;;;;;5035179;28;20488;-61
2022/11/29 08:12:44;;;;;;;21.20;10.87;;;10.50;99.90;;;;;;5037528;28;20825;-61
2022/11/29 08:15:11;;;;;;;31.97;13.73;;;10.50;99.90;;;;;;5037365;28;20464;-61
2022/11/29 08:17:38;;;;;;;36.30;13.60;;;10.60;99.90;;;;;;5036724;28;21219;-60
2022/11/29 08:20:07;;;;;;;37.03;15.27;;;10.70;99.90;;;;;;5039713;28;20484;-62
2022/11/29 08:22:34;;;;;;;23.00;11.20;;;10.60;99.90;;;;;;5025386;28;20476;-61
2022/11/29 08:25:01;;;;;;;27.27;11.70;;;10.70;99.90;;;;;;5034251;28;20864;-61
2022/11/29 08:27:28;;;;;;;28.20;13.03;;;10.60;99.90;;;;;;5029974;28;20476;-61
2022/11/29 08:29:56;;;;;;;22.53;11.17;;;10.60;99.90;;;;;;5035364;28;20492;-61
2022/11/29 08:32:22;;;;;;;43.93;11.80;;;10.60;99.90;;;;;;5033201;28;20480;-61
2022/11/29 08:34:49;;;;;;;24.57;11.50;;;10.70;99.90;;;;;;5035544;28;21027;-61
2022/11/29 08:37:16;;;;;;;34.83;15.50;;;10.70;99.90;;;;;;5027144;28;20492;-60
2022/11/29 08:39:43;;;;;;;30.33;12.70;;;10.80;99.90;;;;;;5035746;28;20473;-61
2022/11/29 08:42:10;;;;;;;42.30;17.27;;;10.80;99.90;;;;;;5035689;28;20495;-60
2022/11/29 08:44:36;;;;;;;28.63;13.30;;;10.90;99.90;;;;;;5038611;28;20531;-61
2022/11/29 08:50:06;;;;;;;36.67;15.60;;;10.90;99.90;;;;;;4970257;28;20630;-61
2022/11/29 08:55:22;;;;;;;36.97;15.20;;;10.90;99.90;;;;;;5005342;28;20578;-61
2022/11/29 08:57:50;;;;;;;30.33;14.90;;;10.80;99.90;;;;;;5033661;28;20488;-61
2022/11/29 09:00:20;;;;;;;42.43;15.77;;;10.80;99.90;;;;;;5041556;28;20496;-61
2022/11/29 09:02:48;;;;;;;44.00;12.73;;;10.80;99.90;;;;;;5044924;28;20480;-61
2022/11/29 09:05:15;;;;;;;47.70;18.27;;;10.90;99.90;;;;;;5037081;28;20476;-61
2022/11/29 09:07:42;;;;;;;35.63;14.33;;;10.90;99.90;;;;;;5035996;28;20483;-61
2022/11/29 09:10:11;;;;;;;51.83;18.23;;;10.70;99.90;;;;;;5041131;28;20488;-61
2022/11/29 09:12:38;;;;;;;30.10;14.00;;;10.60;99.90;;;;;;5038798;28;20472;-61
2022/11/29 09:15:08;;;;;;;43.00;15.20;;;10.70;99.90;;;;;;5036732;28;20484;-61
2022/11/29 09:17:35;;;;;;;39.33;12.43;;;10.70;99.90;;;;;;5035297;28;20483;-61
2022/11/29 09:20:04;;;;;;;22.87;11.57;;;10.80;99.90;;;;;;5037735;28;20894;-61
2022/11/29 09:22:31;;;;;;;36.07;16.07;;;10.90;99.90;;;;;;5029762;28;20976;-61
2022/11/29 09:24:58;;;;;;;44.40;17.10;;;11.00;99.90;;;;;;5050086;28;20491;-61
2022/11/29 09:27:24;;;;;;;33.60;15.70;;;11.00;99.90;;;;;;5033013;28;20488;-61
2022/11/29 09:29:51;;;;;;;34.73;14.93;;;11.00;99.90;;;;;;5036766;28;20476;-61
2022/11/29 09:32:18;;;;;;;49.70;17.00;;;11.10;99.90;;;;;;5036113;28;20487;-61
2022/11/29 09:34:45;;;;;;;36.40;15.90;;;11.10;99.90;;;;;;5041009;28;20475;-61
2022/11/29 09:37:13;;;;;;;43.03;16.27;;;11.10;99.90;;;;;;5040199;28;20492;-61
2022/11/29 09:39:40;;;;;;;36.90;13.37;;;11.10;99.90;;;;;;5029556;28;20483;-61
2022/11/29 09:42:27;;;;;;;57.10;18.47;;;11.10;99.90;;;;;;5038940;28;20911;-61
2022/11/29 09:45:02;;;;;;;34.73;13.43;;;11.00;99.90;;;;;;5038532;28;20502;-61
2022/11/29 09:47:46;;;;;;;27.20;13.83;;;11.00;99.90;;;;;;5033557;28;20502;-61
2022/11/29 09:50:23;;;;;;;45.03;17.47;;;11.10;99.90;;;;;;5033886;28;20944;-61
2022/11/29 09:53:02;;;;;;;32.30;12.33;;;11.10;99.90;;;;;;5039242;28;20483;-61
2022/11/29 09:55:42;;;;;;;27.90;12.20;;;11.10;99.90;;;;;;5036995;28;20493;-61
2022/11/29 09:58:15;;;;;;;35.83;14.90;;;11.10;99.90;;;;;;5037474;28;20514;-61
2022/11/29 10:00:47;;;;;;;36.30;13.70;;;11.10;99.90;;;;;;5038728;28;20480;-61
2022/11/29 10:03:22;;;;;;;40.83;17.97;;;11.20;99.90;;;;;;5028325;28;20819;-61
2022/11/29 10:05:53;;;;;;;36.17;17.13;;;11.20;99.90;;;;;;5033718;28;20502;-61
2022/11/29 10:08:27;;;;;;;32.50;14.27;;;11.10;99.90;;;;;;5036635;28;20703;-61
2022/11/29 10:11:00;;;;;;;35.63;13.67;;;11.20;99.90;;;;;;5037352;28;20484;-61
2022/11/29 10:13:30;;;;;;;30.73;13.27;;;11.20;99.90;;;;;;5037871;28;20485;-61
2022/11/29 10:16:04;;;;;;;30.60;15.40;;;11.20;99.90;;;;;;5035315;28;20488;-61
2022/11/29 10:18:34;;;;;;;30.17;13.47;;;11.30;99.90;;;;;;5033014;28;20865;-61
2022/11/29 10:21:09;;;;;;;32.77;13.37;;;11.40;99.90;;;;;;5037167;28;20484;-60
2022/11/29 10:23:42;;;;;;;28.23;13.73;;;11.50;99.90;;;;;;5037219;28;21008;-61
2022/11/29 10:26:11;;;;;;;38.33;15.87;;;11.50;99.90;;;;;;5037910;28;20488;-61
2022/11/29 10:28:43;;;;;;;26.93;12.87;;;11.60;99.90;;;;;;5037857;28;20491;-61
2022/11/29 10:31:18;;;;;;;41.07;16.30;;;11.70;99.90;;;;;;5035388;28;20478;-60
2022/11/29 10:33:46;;;;;;;34.67;16.03;;;11.70;99.90;;;;;;5037945;28;21070;-61
2022/11/29 10:36:20;;;;;;;44.80;17.03;;;11.70;99.90;;;;;;5034340;28;20484;-61
2022/11/29 10:38:49;;;;;;;34.70;15.33;;;11.70;99.90;;;;;;5040369;28;20488;-61
2022/11/29 10:41:21;;;;;;;35.57;15.93;;;11.80;99.90;;;;;;5037391;28;21003;-61
2022/11/29 10:43:49;;;;;;;33.70;14.50;;;11.80;99.90;;;;;;5026622;28;20490;-62
2022/11/29 10:46:28;;;;;;;36.57;16.47;;;11.80;99.90;;;;;;5033853;28;20484;-61
2022/11/29 10:48:55;;;;;;;36.50;14.93;;;11.90;99.90;;;;;;5024709;28;20571;-61
2022/11/29 10:51:22;;;;;;;32.50;14.63;;;11.90;99.90;;;;;;5036182;28;20499;-61
2022/11/29 10:53:53;;;;;;;28.80;12.87;;;11.90;99.90;;;;;;5031723;28;20756;-62
2022/11/29 10:56:26;;;;;;;31.70;12.73;;;11.90;99.90;;;;;;5042802;28;20477;-61
2022/11/29 10:59:01;;;;;;;43.73;18.70;;;12.00;99.90;;;;;;5027296;28;20465;-61
2022/11/29 11:01:30;;;;;;;38.03;13.60;;;12.00;99.90;;;;;;5034022;28;20487;-61
2022/11/29 11:03:59;;;;;;;30.00;14.23;;;12.00;99.90;;;;;;5032618;28;20484;-61
2022/11/29 11:06:41;;;;;;;21.07;10.50;;;12.10;99.90;;;;;;5034163;28;20488;-61
2022/11/29 11:09:19;;;;;;;43.03;17.67;;;12.20;99.90;;;;;;5034748;28;20495;-61
2022/11/29 11:11:52;;;;;;;28.83;12.50;;;12.30;99.90;;;;;;5036763;28;20705;-61
2022/11/29 11:14:21;;;;;;;33.77;16.10;;;12.40;99.90;;;;;;5032476;28;20556;-61
2022/11/29 11:16:48;;;;;;;25.50;11.60;;;12.50;99.90;;;;;;5021656;28;20936;-61
2022/11/29 11:19:27;;;;;;;34.83;15.20;;;12.50;99.90;;;;;;5040117;28;20711;-61
2022/11/29 11:21:55;;;;;;;31.23;13.97;;;12.60;99.90;;;;;;5028524;28;21153;-61
2022/11/29 11:24:26;;;;;;;20.90;12.20;;;12.60;99.90;;;;;;5038512;28;20472;-61
2022/11/29 11:26:54;;;;;;;27.63;12.40;;;12.60;99.90;;;;;;5023364;28;20480;-61
2022/11/29 11:29:24;;;;;;;23.17;12.20;;;12.60;99.90;;;;;;5038676;28;20479;-62
2022/11/29 11:31:53;;;;;;;19.80;11.07;;;12.70;99.90;;;;;;5037659;28;20479;-62
2022/11/29 11:34:30;;;;;;;45.20;12.87;;;12.70;99.90;;;;;;5037694;28;20490;-62
2022/11/29 11:37:20;;;;;;;25.20;13.40;;;12.70;99.90;;;;;;5035678;28;21639;-62
2022/11/29 11:39:51;;;;;;;17.37;10.90;;;12.60;99.90;;;;;;5038209;28;21224;-61
2022/11/29 11:42:38;;;;;;;25.80;13.40;;;;;;;;;;5035827;28;20834;-61
2022/11/29 11:45:23;;;;;;;29.33;14.20;;;12.50;99.90;;;;;;5027581;28;20483;-61
2022/11/29 11:47:52;;;;;;;28.10;11.60;;;12.50;99.90;;;;;;5035645;28;20816;-61
2022/11/29 11:50:28;;;;;;;23.40;11.37;;;12.50;99.90;;;;;;5039593;28;20498;-61
2022/11/29 11:52:57;;;;;;;32.77;13.07;;;12.60;99.90;;;;;;5025743;28;20476;-61
2022/11/29 11:55:39;;;;;;;24.53;11.80;;;12.60;99.90;;;;;;5039114;28;20483;-61
2022/11/29 11:58:16;;;;;;;25.77;13.63;;;12.60;99.90;;;;;;5036460;28;20472;-62
2022/11/29 12:00:46;;;;;;;29.70;12.30;;;12.70;99.90;;;;;;5038284;28;20484;-62
2022/11/29 12:03:32;;;;;;;31.00;14.30;;;12.70;99.90;;;;;;5039564;28;20499;-61
2022/11/29 12:06:10;;;;;;;25.60;13.47;;;12.70;99.90;;;;;;5035088;28;20984;-62
2022/11/29 12:08:37;;;;;;;20.73;9.17;;;12.70;99.90;;;;;;5037885;28;20488;-62
2022/11/29 12:11:10;;;;;;;24.33;11.50;;;12.70;99.90;;;;;;5038124;28;20515;-61
2022/11/29 12:13:42;;;;;;;23.33;11.50;;;12.60;99.90;;;;;;5025269;28;20481;-61
2022/11/29 12:16:16;;;;;;;33.03;15.43;;;12.60;99.90;;;;;;5043830;28;20473;-62
2022/11/29 12:18:48;;;;;;;20.33;12.20;;;12.60;99.90;;;;;;5037249;28;20480;-61
2022/11/29 12:21:17;;;;;;;31.17;13.27;;;12.60;99.90;;;;;;5038613;28;20491;-62
2022/11/29 12:23:49;;;;;;;22.23;11.50;;;12.70;99.90;;;;;;5038687;28;20579;-61
2022/11/29 12:26:22;;;;;;;27.43;13.93;;;12.60;99.90;;;;;;5030085;28;20476;-61
2022/11/29 12:28:50;;;;;;;22.83;10.50;;;12.60;99.90;;;;;;5038880;28;20495;-61
2022/11/29 12:31:41;;;;;;;30.03;14.07;;;12.60;99.90;;;;;;5037647;28;20835;-62
2022/11/29 12:34:18;;;;;;;32.27;15.33;;;12.60;99.90;;;;;;5036541;28;20846;-61
2022/11/29 12:36:53;;;;;;;17.23;10.37;;;12.60;99.90;;;;;;5032248;28;20476;-61
2022/11/29 12:39:47;;;;;;;22.33;9.90;;;12.50;99.90;;;;;;5034932;28;21103;-61
2022/11/29 12:42:23;;;;;;;39.80;17.60;;;12.40;99.90;;;;;;5034077;28;20480;-61
2022/11/29 12:44:56;;;;;;;31.97;17.33;;;12.60;99.90;;;;;;5024931;28;20856;-61
2022/11/29 12:47:36;;;;;;;28.77;14.67;;;12.60;99.90;;;;;;5032121;28;20564;-60
2022/11/29 12:50:23;;;;;;;52.83;27.80;;;12.70;99.90;;;;;;5029161;28;20484;-61
2022/11/29 12:53:01;;;;;;;40.50;10.93;;;12.70;99.90;;;;;;5027053;28;20468;-61
2022/11/29 12:55:39;;;;;;;24.33;14.10;;;12.70;99.90;;;;;;5022176;28;20474;-61
2022/11/29 12:58:15;;;;;;;66.10;26.73;;;12.70;99.90;;;;;;5036324;28;20484;-61
2022/11/29 13:00:51;;;;;;;33.47;16.67;;;12.70;99.90;;;;;;5037340;28;20487;-61
2022/11/29 13:03:24;;;;;;;40.17;20.60;;;12.60;99.90;;;;;;5035308;28;20484;-61
2022/11/29 13:06:01;;;;;;;45.77;23.50;;;12.50;99.90;;;;;;5029721;28;20492;-61
2022/11/29 13:08:53;;;;;;;49.90;21.87;;;12.40;99.90;;;;;;5028107;28;21123;-61
2022/11/29 13:11:23;;;;;;;55.60;26.03;;;12.40;99.90;;;;;;5041150;28;20487;-62
2022/11/29 13:13:58;;;;;;;46.70;14.83;;;12.30;99.90;;;;;;5041382;28;20472;-62
2022/11/29 13:16:40;;;;;;;19.70;10.03;;;12.10;99.90;;;;;;5016414;28;20843;-62